sensor_id;sensor_type;location;lat;lon;timestamp;P1;durP1;ratioP1;P2;durP2;ratioP2
50779;SDS011;36748;37.428;-121.972;2022-09-30T00:01:48;15.73;;;2.22;;
50779;SDS011;36748;37.428;-121.972;2022-09-30T00:04:16;16.00;;;2.75;;
50779;SDS011;36748;37.428;-121.972;2022-09-30T00:06:44;8.35;;;2.80;;
50779;SDS011;36748;37.428;-121.972;2022-09-30T00:09:13;11.23;;;2.28;;
50779;SDS011;36748;37.428;-121.972;2022-09-30T00:11:40;8.13;;;2.08;;
50779;SDS011;36748;37.428;-121.972;2022-09-30T00:14:17;6.45;;;2.67;;
50779;SDS011;36748;37.428;-121.972;2022-09-30T00:16:45;6.95;;;2.20;;
50779;SDS011;36748;37.428;-121.972;2022-09-30T00:19:12;7.50;;;2.40;;
50779;SDS011;36748;37.428;-121.972;2022-09-30T00:21:38;12.18;;;2.90;;
50779;SDS011;36748;37.428;-121.972;2022-09-30T00:24:04;9.73;;;2.58;;
50779;SDS011;36748;37.428;-121.972;2022-09-30T00:26:31;8.88;;;2.58;;
50779;SDS011;36748;37.428;-121.972;2022-09-30T00:28:58;9.32;;;2.65;;
50779;SDS011;36748;37.428;-121.972;2022-09-30T00:31:26;10.65;;;2.80;;
50779;SDS011;36748;37.428;-121.972;2022-09-30T00:33:54;12.05;;;2.53;;
50779;SDS011;36748;37.428;-121.972;2022-09-30T00:38:59;9.50;;;2.50;;
50779;SDS011;36748;37.428;-121.972;2022-09-30T00:41:25;8.60;;;2.60;;
50779;SDS011;36748;37.428;-121.972;2022-09-30T00:43:52;12.00;;;2.75;;
50779;SDS011;36748;37.428;-121.972;2022-09-30T00:48:51;7.85;;;2.65;;
50779;SDS011;36748;37.428;-121.972;2022-09-30T00:51:38;11.38;;;3.17;;
50779;SDS011;36748;37.428;-121.972;2022-09-30T00:54:17;8.50;;;2.75;;
50779;SDS011;36748;37.428;-121.972;2022-09-30T00:56:47;8.90;;;2.47;;
50779;SDS011;36748;37.428;-121.972;2022-09-30T00:59:30;9.07;;;2.28;;
50779;SDS011;36748;37.428;-121.972;2022-09-30T01:01:59;14.32;;;2.55;;
50779;SDS011;36748;37.428;-121.972;2022-09-30T01:04:27;10.15;;;2.28;;
50779;SDS011;36748;37.428;-121.972;2022-09-30T01:06:57;12.35;;;3.30;;
50779;SDS011;36748;37.428;-121.972;2022-09-30T01:09:24;8.73;;;2.70;;
50779;SDS011;36748;37.428;-121.972;2022-09-30T01:11:51;8.82;;;2.85;;
50779;SDS011;36748;37.428;-121.972;2022-09-30T01:14:19;10.05;;;2.83;;
50779;SDS011;36748;37.428;-121.972;2022-09-30T01:16:56;11.48;;;2.78;;
50779;SDS011;36748;37.428;-121.972;2022-09-30T01:30:20;10.82;;;2.78;;
50779;SDS011;36748;37.428;-121.972;2022-09-30T01:33:11;6.53;;;2.35;;
50779;SDS011;36748;37.428;-121.972;2022-09-30T01:39:11;13.57;;;2.53;;
50779;SDS011;36748;37.428;-121.972;2022-09-30T01:44:24;9.77;;;2.45;;
50779;SDS011;36748;37.428;-121.972;2022-09-30T01:47:00;8.07;;;2.50;;
50779;SDS011;36748;37.428;-121.972;2022-09-30T01:51:58;12.55;;;2.53;;
50779;SDS011;36748;37.428;-121.972;2022-09-30T01:57:23;13.18;;;2.78;;
50779;SDS011;36748;37.428;-121.972;2022-09-30T02:00:11;6.15;;;2.20;;
50779;SDS011;36748;37.428;-121.972;2022-09-30T02:02:41;5.88;;;2.13;;
50779;SDS011;36748;37.428;-121.972;2022-09-30T02:05:24;6.18;;;2.03;;
50779;SDS011;36748;37.428;-121.972;2022-09-30T02:08:14;11.35;;;2.53;;
50779;SDS011;36748;37.428;-121.972;2022-09-30T02:10:46;9.32;;;1.92;;
50779;SDS011;36748;37.428;-121.972;2022-09-30T02:13:21;7.75;;;2.58;;
50779;SDS011;36748;37.428;-121.972;2022-09-30T02:16:17;6.78;;;2.25;;
50779;SDS011;36748;37.428;-121.972;2022-09-30T02:18:48;11.65;;;2.80;;
50779;SDS011;36748;37.428;-121.972;2022-09-30T02:21:19;8.45;;;2.10;;
50779;SDS011;36748;37.428;-121.972;2022-09-30T02:23:49;10.20;;;2.08;;
50779;SDS011;36748;37.428;-121.972;2022-09-30T02:26:19;4.95;;;1.90;;
50779;SDS011;36748;37.428;-121.972;2022-09-30T02:29:00;7.15;;;2.00;;
50779;SDS011;36748;37.428;-121.972;2022-09-30T02:31:33;5.55;;;2.38;;
50779;SDS011;36748;37.428;-121.972;2022-09-30T02:34:03;8.10;;;2.55;;
50779;SDS011;36748;37.428;-121.972;2022-09-30T02:36:51;8.15;;;2.40;;
50779;SDS011;36748;37.428;-121.972;2022-09-30T02:39:26;5.97;;;2.42;;
50779;SDS011;36748;37.428;-121.972;2022-09-30T02:42:04;6.72;;;2.25;;
50779;SDS011;36748;37.428;-121.972;2022-09-30T02:44:34;6.05;;;1.98;;
50779;SDS011;36748;37.428;-121.972;2022-09-30T02:47:06;6.50;;;2.28;;
50779;SDS011;36748;37.428;-121.972;2022-09-30T02:49:38;8.45;;;2.00;;
50779;SDS011;36748;37.428;-121.972;2022-09-30T02:57:53;18.50;;;2.10;;
50779;SDS011;36748;37.428;-121.972;2022-09-30T03:00:21;8.98;;;2.08;;
50779;SDS011;36748;37.428;-121.972;2022-09-30T03:02:49;6.18;;;2.10;;
50779;SDS011;36748;37.428;-121.972;2022-09-30T03:05:20;6.25;;;2.10;;
50779;SDS011;36748;37.428;-121.972;2022-09-30T03:07:46;6.80;;;1.90;;
50779;SDS011;36748;37.428;-121.972;2022-09-30T03:10:15;6.97;;;2.30;;
50779;SDS011;36748;37.428;-121.972;2022-09-30T03:12:47;5.15;;;2.10;;
50779;SDS011;36748;37.428;-121.972;2022-09-30T03:23:58;6.10;;;2.30;;
50779;SDS011;36748;37.428;-121.972;2022-09-30T03:33:11;6.20;;;2.05;;
50779;SDS011;36748;37.428;-121.972;2022-09-30T03:38:45;5.10;;;1.67;;
50779;SDS011;36748;37.428;-121.972;2022-09-30T03:41:47;4.88;;;1.85;;
50779;SDS011;36748;37.428;-121.972;2022-09-30T03:44:21;5.15;;;2.17;;
50779;SDS011;36748;37.428;-121.972;2022-09-30T03:46:52;6.55;;;2.40;;
50779;SDS011;36748;37.428;-121.972;2022-09-30T03:49:29;6.80;;;2.50;;
50779;SDS011;36748;37.428;-121.972;2022-09-30T03:51:59;8.00;;;2.45;;
50779;SDS011;36748;37.428;-121.972;2022-09-30T03:54:30;5.38;;;2.00;;
50779;SDS011;36748;37.428;-121.972;2022-09-30T03:56:57;5.05;;;2.42;;
50779;SDS011;36748;37.428;-121.972;2022-09-30T03:59:27;6.35;;;2.25;;
50779;SDS011;36748;37.428;-121.972;2022-09-30T04:01:57;9.57;;;2.50;;
50779;SDS011;36748;37.428;-121.972;2022-09-30T04:07:46;6.00;;;2.00;;
50779;SDS011;36748;37.428;-121.972;2022-09-30T04:13:18;8.82;;;2.20;;
50779;SDS011;36748;37.428;-121.972;2022-09-30T04:15:51;8.00;;;1.90;;
50779;SDS011;36748;37.428;-121.972;2022-09-30T04:18:19;6.25;;;1.92;;
50779;SDS011;36748;37.428;-121.972;2022-09-30T04:20:45;7.55;;;2.03;;
50779;SDS011;36748;37.428;-121.972;2022-09-30T04:23:11;4.63;;;1.92;;
50779;SDS011;36748;37.428;-121.972;2022-09-30T04:25:37;5.30;;;2.00;;
50779;SDS011;36748;37.428;-121.972;2022-09-30T04:28:03;8.95;;;2.25;;
50779;SDS011;36748;37.428;-121.972;2022-09-30T04:30:29;6.05;;;1.88;;
50779;SDS011;36748;37.428;-121.972;2022-09-30T04:32:59;11.90;;;2.35;;
50779;SDS011;36748;37.428;-121.972;2022-09-30T04:35:25;13.23;;;2.47;;
50779;SDS011;36748;37.428;-121.972;2022-09-30T04:37:56;8.52;;;2.00;;
50779;SDS011;36748;37.428;-121.972;2022-09-30T04:40:39;7.22;;;2.00;;
50779;SDS011;36748;37.428;-121.972;2022-09-30T04:43:20;5.70;;;1.98;;
50779;SDS011;36748;37.428;-121.972;2022-09-30T04:45:50;8.73;;;2.25;;
50779;SDS011;36748;37.428;-121.972;2022-09-30T04:48:17;6.20;;;1.88;;
50779;SDS011;36748;37.428;-121.972;2022-09-30T04:50:43;6.85;;;2.30;;
50779;SDS011;36748;37.428;-121.972;2022-09-30T04:53:18;7.57;;;2.08;;
50779;SDS011;36748;37.428;-121.972;2022-09-30T04:55:48;5.60;;;2.08;;
50779;SDS011;36748;37.428;-121.972;2022-09-30T04:58:23;5.70;;;1.88;;
50779;SDS011;36748;37.428;-121.972;2022-09-30T05:00:49;6.03;;;2.03;;
50779;SDS011;36748;37.428;-121.972;2022-09-30T05:03:49;3.97;;;1.88;;
50779;SDS011;36748;37.428;-121.972;2022-09-30T05:06:22;7.00;;;2.50;;
50779;SDS011;36748;37.428;-121.972;2022-09-30T05:08:50;9.13;;;2.00;;
50779;SDS011;36748;37.428;-121.972;2022-09-30T05:11:17;6.47;;;2.60;;
50779;SDS011;36748;37.428;-121.972;2022-09-30T05:13:45;6.85;;;2.33;;
50779;SDS011;36748;37.428;-121.972;2022-09-30T05:16:13;4.45;;;1.75;;
50779;SDS011;36748;37.428;-121.972;2022-09-30T05:18:57;6.20;;;2.17;;
50779;SDS011;36748;37.428;-121.972;2022-09-30T05:21:26;8.38;;;2.03;;
50779;SDS011;36748;37.428;-121.972;2022-09-30T05:23:54;5.63;;;1.90;;
50779;SDS011;36748;37.428;-121.972;2022-09-30T05:26:21;3.53;;;1.83;;
50779;SDS011;36748;37.428;-121.972;2022-09-30T05:28:48;4.20;;;1.85;;
50779;SDS011;36748;37.428;-121.972;2022-09-30T05:31:20;5.00;;;1.80;;
50779;SDS011;36748;37.428;-121.972;2022-09-30T05:33:46;4.93;;;1.92;;
50779;SDS011;36748;37.428;-121.972;2022-09-30T05:36:13;6.68;;;1.95;;
50779;SDS011;36748;37.428;-121.972;2022-09-30T05:38:40;5.18;;;1.90;;
50779;SDS011;36748;37.428;-121.972;2022-09-30T05:41:08;5.47;;;1.58;;
50779;SDS011;36748;37.428;-121.972;2022-09-30T05:44:01;3.60;;;1.73;;
50779;SDS011;36748;37.428;-121.972;2022-09-30T05:46:28;5.82;;;2.03;;
50779;SDS011;36748;37.428;-121.972;2022-09-30T05:48:57;5.43;;;2.00;;
50779;SDS011;36748;37.428;-121.972;2022-09-30T05:51:26;4.93;;;1.65;;
50779;SDS011;36748;37.428;-121.972;2022-09-30T05:53:52;6.65;;;1.83;;
50779;SDS011;36748;37.428;-121.972;2022-09-30T05:56:18;5.10;;;1.75;;
50779;SDS011;36748;37.428;-121.972;2022-09-30T05:58:50;5.32;;;1.83;;
50779;SDS011;36748;37.428;-121.972;2022-09-30T06:01:16;3.28;;;1.40;;
50779;SDS011;36748;37.428;-121.972;2022-09-30T06:03:43;4.13;;;2.08;;
50779;SDS011;36748;37.428;-121.972;2022-09-30T06:06:10;3.90;;;1.50;;
50779;SDS011;36748;37.428;-121.972;2022-09-30T06:08:37;3.80;;;1.45;;
50779;SDS011;36748;37.428;-121.972;2022-09-30T06:11:14;5.30;;;1.83;;
50779;SDS011;36748;37.428;-121.972;2022-09-30T06:16:43;6.22;;;1.80;;
50779;SDS011;36748;37.428;-121.972;2022-09-30T06:19:09;5.55;;;2.08;;
50779;SDS011;36748;37.428;-121.972;2022-09-30T06:21:35;5.13;;;1.70;;
50779;SDS011;36748;37.428;-121.972;2022-09-30T06:24:10;5.78;;;1.88;;
50779;SDS011;36748;37.428;-121.972;2022-09-30T06:27:27;6.90;;;1.85;;
50779;SDS011;36748;37.428;-121.972;2022-09-30T06:30:30;8.63;;;1.80;;
50779;SDS011;36748;37.428;-121.972;2022-09-30T06:33:44;6.60;;;2.10;;
50779;SDS011;36748;37.428;-121.972;2022-09-30T06:36:10;3.20;;;1.50;;
50779;SDS011;36748;37.428;-121.972;2022-09-30T06:38:37;4.68;;;1.65;;
50779;SDS011;36748;37.428;-121.972;2022-09-30T06:41:04;8.93;;;2.40;;
50779;SDS011;36748;37.428;-121.972;2022-09-30T06:43:30;5.65;;;1.63;;
50779;SDS011;36748;37.428;-121.972;2022-09-30T06:45:57;5.55;;;1.50;;
50779;SDS011;36748;37.428;-121.972;2022-09-30T06:48:23;3.38;;;1.63;;
50779;SDS011;36748;37.428;-121.972;2022-09-30T06:50:49;5.22;;;1.67;;
50779;SDS011;36748;37.428;-121.972;2022-09-30T06:53:21;7.32;;;1.92;;
50779;SDS011;36748;37.428;-121.972;2022-09-30T06:55:47;7.05;;;1.98;;
50779;SDS011;36748;37.428;-121.972;2022-09-30T06:58:20;4.18;;;1.77;;
50779;SDS011;36748;37.428;-121.972;2022-09-30T07:00:57;7.10;;;1.67;;
50779;SDS011;36748;37.428;-121.972;2022-09-30T07:03:26;5.00;;;1.95;;
50779;SDS011;36748;37.428;-121.972;2022-09-30T07:05:56;6.18;;;1.80;;
50779;SDS011;36748;37.428;-121.972;2022-09-30T07:08:24;4.93;;;1.55;;
50779;SDS011;36748;37.428;-121.972;2022-09-30T07:10:59;6.35;;;1.67;;
50779;SDS011;36748;37.428;-121.972;2022-09-30T07:13:29;5.13;;;1.48;;
50779;SDS011;36748;37.428;-121.972;2022-09-30T07:15:55;11.10;;;2.22;;
50779;SDS011;36748;37.428;-121.972;2022-09-30T07:18:25;6.13;;;2.10;;
50779;SDS011;36748;37.428;-121.972;2022-09-30T07:21:11;8.93;;;1.90;;
50779;SDS011;36748;37.428;-121.972;2022-09-30T07:23:40;6.20;;;1.80;;
50779;SDS011;36748;37.428;-121.972;2022-09-30T07:26:15;6.75;;;1.80;;
50779;SDS011;36748;37.428;-121.972;2022-09-30T07:28:43;4.65;;;1.55;;
50779;SDS011;36748;37.428;-121.972;2022-09-30T07:31:14;7.32;;;2.45;;
50779;SDS011;36748;37.428;-121.972;2022-09-30T07:33:53;5.45;;;1.75;;
50779;SDS011;36748;37.428;-121.972;2022-09-30T07:36:42;6.57;;;2.35;;
50779;SDS011;36748;37.428;-121.972;2022-09-30T07:39:09;8.38;;;2.15;;
50779;SDS011;36748;37.428;-121.972;2022-09-30T07:42:07;3.47;;;1.70;;
50779;SDS011;36748;37.428;-121.972;2022-09-30T07:44:33;5.65;;;2.05;;
50779;SDS011;36748;37.428;-121.972;2022-09-30T07:47:04;6.18;;;2.00;;
50779;SDS011;36748;37.428;-121.972;2022-09-30T07:49:30;6.40;;;1.90;;
50779;SDS011;36748;37.428;-121.972;2022-09-30T07:51:59;11.27;;;1.90;;
50779;SDS011;36748;37.428;-121.972;2022-09-30T07:54:27;7.45;;;2.10;;
50779;SDS011;36748;37.428;-121.972;2022-09-30T07:56:57;7.30;;;2.28;;
50779;SDS011;36748;37.428;-121.972;2022-09-30T07:59:24;5.28;;;1.83;;
50779;SDS011;36748;37.428;-121.972;2022-09-30T08:01:57;5.07;;;2.25;;
50779;SDS011;36748;37.428;-121.972;2022-09-30T08:04:46;5.85;;;2.10;;
50779;SDS011;36748;37.428;-121.972;2022-09-30T08:07:16;19.00;;;2.05;;
50779;SDS011;36748;37.428;-121.972;2022-09-30T08:09:43;5.97;;;2.08;;
50779;SDS011;36748;37.428;-121.972;2022-09-30T08:12:12;6.07;;;2.17;;
50779;SDS011;36748;37.428;-121.972;2022-09-30T08:14:41;8.68;;;1.27;;
50779;SDS011;36748;37.428;-121.972;2022-09-30T08:17:09;4.38;;;1.77;;
50779;SDS011;36748;37.428;-121.972;2022-09-30T08:19:35;6.95;;;1.80;;
50779;SDS011;36748;37.428;-121.972;2022-09-30T08:22:10;4.90;;;1.95;;
50779;SDS011;36748;37.428;-121.972;2022-09-30T08:24:42;6.10;;;2.20;;
50779;SDS011;36748;37.428;-121.972;2022-09-30T08:27:08;7.35;;;2.10;;
50779;SDS011;36748;37.428;-121.972;2022-09-30T08:29:34;6.25;;;1.65;;
50779;SDS011;36748;37.428;-121.972;2022-09-30T08:32:00;6.53;;;2.40;;
50779;SDS011;36748;37.428;-121.972;2022-09-30T08:34:27;7.40;;;2.03;;
50779;SDS011;36748;37.428;-121.972;2022-09-30T08:36:58;7.95;;;2.05;;
50779;SDS011;36748;37.428;-121.972;2022-09-30T08:39:24;6.65;;;2.45;;
50779;SDS011;36748;37.428;-121.972;2022-09-30T08:41:53;5.85;;;2.00;;
50779;SDS011;36748;37.428;-121.972;2022-09-30T08:44:34;9.18;;;2.75;;
50779;SDS011;36748;37.428;-121.972;2022-09-30T08:52:26;5.93;;;2.35;;
50779;SDS011;36748;37.428;-121.972;2022-09-30T08:55:20;5.53;;;2.05;;
50779;SDS011;36748;37.428;-121.972;2022-09-30T09:00:15;4.78;;;2.20;;
50779;SDS011;36748;37.428;-121.972;2022-09-30T09:02:47;6.90;;;2.03;;
50779;SDS011;36748;37.428;-121.972;2022-09-30T09:05:17;5.43;;;2.03;;
50779;SDS011;36748;37.428;-121.972;2022-09-30T09:07:56;8.82;;;2.58;;
50779;SDS011;36748;37.428;-121.972;2022-09-30T09:10:26;5.25;;;1.90;;
50779;SDS011;36748;37.428;-121.972;2022-09-30T09:21:19;4.78;;;2.30;;
50779;SDS011;36748;37.428;-121.972;2022-09-30T09:23:50;6.53;;;2.03;;
50779;SDS011;36748;37.428;-121.972;2022-09-30T09:26:17;3.88;;;1.70;;
50779;SDS011;36748;37.428;-121.972;2022-09-30T09:31:32;7.60;;;1.92;;
50779;SDS011;36748;37.428;-121.972;2022-09-30T09:34:00;5.57;;;2.05;;
50779;SDS011;36748;37.428;-121.972;2022-09-30T09:36:48;5.22;;;2.13;;
50779;SDS011;36748;37.428;-121.972;2022-09-30T09:48:20;5.38;;;2.10;;
50779;SDS011;36748;37.428;-121.972;2022-09-30T09:50:49;7.43;;;1.98;;
50779;SDS011;36748;37.428;-121.972;2022-09-30T09:55:54;5.57;;;2.10;;
50779;SDS011;36748;37.428;-121.972;2022-09-30T09:58:24;5.20;;;2.38;;
50779;SDS011;36748;37.428;-121.972;2022-09-30T10:00:51;7.22;;;2.40;;
50779;SDS011;36748;37.428;-121.972;2022-09-30T10:03:18;4.53;;;1.90;;
50779;SDS011;36748;37.428;-121.972;2022-09-30T10:08:32;4.93;;;1.65;;
50779;SDS011;36748;37.428;-121.972;2022-09-30T10:11:00;3.78;;;1.73;;
50779;SDS011;36748;37.428;-121.972;2022-09-30T10:13:29;4.72;;;2.20;;
50779;SDS011;36748;37.428;-121.972;2022-09-30T10:16:05;4.65;;;1.95;;
50779;SDS011;36748;37.428;-121.972;2022-09-30T10:18:33;4.75;;;2.15;;
50779;SDS011;36748;37.428;-121.972;2022-09-30T10:21:01;7.10;;;2.25;;
50779;SDS011;36748;37.428;-121.972;2022-09-30T10:23:32;5.38;;;2.13;;
50779;SDS011;36748;37.428;-121.972;2022-09-30T10:26:15;5.15;;;1.95;;
50779;SDS011;36748;37.428;-121.972;2022-09-30T10:28:47;6.15;;;2.17;;
50779;SDS011;36748;37.428;-121.972;2022-09-30T10:31:24;6.20;;;2.03;;
50779;SDS011;36748;37.428;-121.972;2022-09-30T10:33:59;6.45;;;1.67;;
50779;SDS011;36748;37.428;-121.972;2022-09-30T10:36:30;4.18;;;2.03;;
50779;SDS011;36748;37.428;-121.972;2022-09-30T10:41:36;4.30;;;1.70;;
50779;SDS011;36748;37.428;-121.972;2022-09-30T10:44:04;4.28;;;2.13;;
50779;SDS011;36748;37.428;-121.972;2022-09-30T10:46:34;6.07;;;2.30;;
50779;SDS011;36748;37.428;-121.972;2022-09-30T10:49:10;5.47;;;2.35;;
50779;SDS011;36748;37.428;-121.972;2022-09-30T10:51:49;5.53;;;1.83;;
50779;SDS011;36748;37.428;-121.972;2022-09-30T10:54:41;6.45;;;2.08;;
50779;SDS011;36748;37.428;-121.972;2022-09-30T10:57:13;5.37;;;2.07;;
50779;SDS011;36748;37.428;-121.972;2022-09-30T11:00:32;6.13;;;2.22;;
50779;SDS011;36748;37.428;-121.972;2022-09-30T11:03:06;6.38;;;2.00;;
50779;SDS011;36748;37.428;-121.972;2022-09-30T11:05:39;4.97;;;2.00;;
50779;SDS011;36748;37.428;-121.972;2022-09-30T11:08:18;3.65;;;1.85;;
50779;SDS011;36748;37.428;-121.972;2022-09-30T11:11:09;5.47;;;1.80;;
50779;SDS011;36748;37.428;-121.972;2022-09-30T11:13:54;4.93;;;1.95;;
50779;SDS011;36748;37.428;-121.972;2022-09-30T11:19:15;4.40;;;2.17;;
50779;SDS011;36748;37.428;-121.972;2022-09-30T11:24:58;4.70;;;1.85;;
50779;SDS011;36748;37.428;-121.972;2022-09-30T11:30:01;4.10;;;1.67;;
50779;SDS011;36748;37.428;-121.972;2022-09-30T11:38:47;4.80;;;2.40;;
50779;SDS011;36748;37.428;-121.972;2022-09-30T11:41:39;3.55;;;1.55;;
50779;SDS011;36748;37.428;-121.972;2022-09-30T11:46:52;5.75;;;1.70;;
50779;SDS011;36748;37.428;-121.972;2022-09-30T11:52:34;6.03;;;2.30;;
50779;SDS011;36748;37.428;-121.972;2022-09-30T12:00:15;4.30;;;2.20;;
50779;SDS011;36748;37.428;-121.972;2022-09-30T12:02:46;3.95;;;1.90;;
50779;SDS011;36748;37.428;-121.972;2022-09-30T12:13:33;4.80;;;1.95;;
50779;SDS011;36748;37.428;-121.972;2022-09-30T12:16:01;3.90;;;1.80;;
50779;SDS011;36748;37.428;-121.972;2022-09-30T12:19:12;3.72;;;1.98;;
50779;SDS011;36748;37.428;-121.972;2022-09-30T12:21:34;4.65;;;2.03;;
50779;SDS011;36748;37.428;-121.972;2022-09-30T12:24:08;4.53;;;1.70;;
50779;SDS011;36748;37.428;-121.972;2022-09-30T12:26:36;4.50;;;1.88;;
50779;SDS011;36748;37.428;-121.972;2022-09-30T12:29:46;3.88;;;1.83;;
50779;SDS011;36748;37.428;-121.972;2022-09-30T12:35:01;8.40;;;1.80;;
50779;SDS011;36748;37.428;-121.972;2022-09-30T12:46:14;3.58;;;1.75;;
50779;SDS011;36748;37.428;-121.972;2022-09-30T12:48:52;4.75;;;1.63;;
50779;SDS011;36748;37.428;-121.972;2022-09-30T12:51:21;3.08;;;1.60;;
50779;SDS011;36748;37.428;-121.972;2022-09-30T12:54:04;5.30;;;1.98;;
50779;SDS011;36748;37.428;-121.972;2022-09-30T12:56:40;4.60;;;1.98;;
50779;SDS011;36748;37.428;-121.972;2022-09-30T12:59:08;4.22;;;1.85;;
50779;SDS011;36748;37.428;-121.972;2022-09-30T13:01:35;3.22;;;1.70;;
50779;SDS011;36748;37.428;-121.972;2022-09-30T13:11:40;3.72;;;1.88;;
50779;SDS011;36748;37.428;-121.972;2022-09-30T13:30:44;5.35;;;1.60;;
50779;SDS011;36748;37.428;-121.972;2022-09-30T13:40:47;3.20;;;1.70;;
50779;SDS011;36748;37.428;-121.972;2022-09-30T13:44:18;4.28;;;1.67;;
50779;SDS011;36748;37.428;-121.972;2022-09-30T13:49:02;6.38;;;1.77;;
50779;SDS011;36748;37.428;-121.972;2022-09-30T13:51:31;4.45;;;1.67;;
50779;SDS011;36748;37.428;-121.972;2022-09-30T13:53:59;4.88;;;2.03;;
50779;SDS011;36748;37.428;-121.972;2022-09-30T13:56:35;3.50;;;1.60;;
50779;SDS011;36748;37.428;-121.972;2022-09-30T14:10:43;3.50;;;1.63;;
50779;SDS011;36748;37.428;-121.972;2022-09-30T14:13:39;5.30;;;2.00;;
50779;SDS011;36748;37.428;-121.972;2022-09-30T14:21:51;4.68;;;1.95;;
50779;SDS011;36748;37.428;-121.972;2022-09-30T14:24:22;4.93;;;2.13;;
50779;SDS011;36748;37.428;-121.972;2022-09-30T14:32:47;3.95;;;1.90;;
50779;SDS011;36748;37.428;-121.972;2022-09-30T14:35:23;5.35;;;1.77;;
50779;SDS011;36748;37.428;-121.972;2022-09-30T14:37:56;5.45;;;2.17;;
50779;SDS011;36748;37.428;-121.972;2022-09-30T14:40:26;3.50;;;1.52;;
50779;SDS011;36748;37.428;-121.972;2022-09-30T14:42:54;7.28;;;2.00;;
50779;SDS011;36748;37.428;-121.972;2022-09-30T14:45:36;7.03;;;1.98;;
50779;SDS011;36748;37.428;-121.972;2022-09-30T14:48:05;3.35;;;1.90;;
50779;SDS011;36748;37.428;-121.972;2022-09-30T14:50:40;5.43;;;1.95;;
50779;SDS011;36748;37.428;-121.972;2022-09-30T14:53:27;6.63;;;2.28;;
50779;SDS011;36748;37.428;-121.972;2022-09-30T14:55:58;3.60;;;1.58;;
50779;SDS011;36748;37.428;-121.972;2022-09-30T15:01:00;6.28;;;1.75;;
50779;SDS011;36748;37.428;-121.972;2022-09-30T15:03:28;4.20;;;1.80;;
50779;SDS011;36748;37.428;-121.972;2022-09-30T15:05:55;3.08;;;1.55;;
50779;SDS011;36748;37.428;-121.972;2022-09-30T15:08:22;5.07;;;1.98;;
50779;SDS011;36748;37.428;-121.972;2022-09-30T15:10:50;5.43;;;1.77;;
50779;SDS011;36748;37.428;-121.972;2022-09-30T15:13:18;3.30;;;1.80;;
50779;SDS011;36748;37.428;-121.972;2022-09-30T15:15:52;4.13;;;1.60;;
50779;SDS011;36748;37.428;-121.972;2022-09-30T15:18:25;4.80;;;1.70;;
50779;SDS011;36748;37.428;-121.972;2022-09-30T15:20:52;4.78;;;1.75;;
50779;SDS011;36748;37.428;-121.972;2022-09-30T15:23:24;3.85;;;1.95;;
50779;SDS011;36748;37.428;-121.972;2022-09-30T15:25:53;2.83;;;1.63;;
50779;SDS011;36748;37.428;-121.972;2022-09-30T15:28:19;3.38;;;1.60;;
50779;SDS011;36748;37.428;-121.972;2022-09-30T15:30:46;3.05;;;1.88;;
50779;SDS011;36748;37.428;-121.972;2022-09-30T15:33:15;2.60;;;1.55;;
50779;SDS011;36748;37.428;-121.972;2022-09-30T15:35:43;5.05;;;1.70;;
50779;SDS011;36748;37.428;-121.972;2022-09-30T15:38:30;4.70;;;1.70;;
50779;SDS011;36748;37.428;-121.972;2022-09-30T15:41:07;7.47;;;2.00;;
50779;SDS011;36748;37.428;-121.972;2022-09-30T15:49:03;6.03;;;1.83;;
50779;SDS011;36748;37.428;-121.972;2022-09-30T15:56:39;3.47;;;2.00;;
50779;SDS011;36748;37.428;-121.972;2022-09-30T15:59:08;4.90;;;2.00;;
50779;SDS011;36748;37.428;-121.972;2022-09-30T16:01:59;4.72;;;1.73;;
50779;SDS011;36748;37.428;-121.972;2022-09-30T16:04:24;4.05;;;1.77;;
50779;SDS011;36748;37.428;-121.972;2022-09-30T16:07:05;5.78;;;1.95;;
50779;SDS011;36748;37.428;-121.972;2022-09-30T16:09:36;4.95;;;2.10;;
50779;SDS011;36748;37.428;-121.972;2022-09-30T16:12:25;4.32;;;1.80;;
50779;SDS011;36748;37.428;-121.972;2022-09-30T16:14:59;3.97;;;1.50;;
50779;SDS011;36748;37.428;-121.972;2022-09-30T16:17:30;5.20;;;1.95;;
50779;SDS011;36748;37.428;-121.972;2022-09-30T16:28:10;7.37;;;2.10;;
50779;SDS011;36748;37.428;-121.972;2022-09-30T16:30:45;4.15;;;2.17;;
50779;SDS011;36748;37.428;-121.972;2022-09-30T16:33:13;5.60;;;1.90;;
50779;SDS011;36748;37.428;-121.972;2022-09-30T16:35:40;12.27;;;2.15;;
50779;SDS011;36748;37.428;-121.972;2022-09-30T16:38:09;6.43;;;2.25;;
50779;SDS011;36748;37.428;-121.972;2022-09-30T16:40:37;9.07;;;2.40;;
50779;SDS011;36748;37.428;-121.972;2022-09-30T16:43:04;31.40;;;2.50;;
50779;SDS011;36748;37.428;-121.972;2022-09-30T16:45:31;13.48;;;2.20;;
50779;SDS011;36748;37.428;-121.972;2022-09-30T16:47:58;7.72;;;2.65;;
50779;SDS011;36748;37.428;-121.972;2022-09-30T16:52:59;21.45;;;3.97;;
50779;SDS011;36748;37.428;-121.972;2022-09-30T16:55:26;11.73;;;2.83;;
50779;SDS011;36748;37.428;-121.972;2022-09-30T16:57:53;21.88;;;3.53;;
50779;SDS011;36748;37.428;-121.972;2022-09-30T17:00:22;14.27;;;2.95;;
50779;SDS011;36748;37.428;-121.972;2022-09-30T17:02:52;12.57;;;3.28;;
50779;SDS011;36748;37.428;-121.972;2022-09-30T17:05:19;17.95;;;3.17;;
50779;SDS011;36748;37.428;-121.972;2022-09-30T17:07:57;16.67;;;3.25;;
50779;SDS011;36748;37.428;-121.972;2022-09-30T17:10:24;11.07;;;2.78;;
50779;SDS011;36748;37.428;-121.972;2022-09-30T17:12:53;9.27;;;2.95;;
50779;SDS011;36748;37.428;-121.972;2022-09-30T17:15:20;12.38;;;3.63;;
50779;SDS011;36748;37.428;-121.972;2022-09-30T17:17:47;9.32;;;2.88;;
50779;SDS011;36748;37.428;-121.972;2022-09-30T17:20:13;12.80;;;3.13;;
50779;SDS011;36748;37.428;-121.972;2022-09-30T17:22:42;11.02;;;3.38;;
50779;SDS011;36748;37.428;-121.972;2022-09-30T17:25:09;9.38;;;3.10;;
50779;SDS011;36748;37.428;-121.972;2022-09-30T17:27:36;11.30;;;3.17;;
50779;SDS011;36748;37.428;-121.972;2022-09-30T17:30:04;10.40;;;2.55;;
50779;SDS011;36748;37.428;-121.972;2022-09-30T17:32:31;6.10;;;2.85;;
50779;SDS011;36748;37.428;-121.972;2022-09-30T17:34:57;5.47;;;2.70;;
50779;SDS011;36748;37.428;-121.972;2022-09-30T17:37:24;10.50;;;3.13;;
50779;SDS011;36748;37.428;-121.972;2022-09-30T17:39:51;7.95;;;3.13;;
50779;SDS011;36748;37.428;-121.972;2022-09-30T17:42:18;10.60;;;3.55;;
50779;SDS011;36748;37.428;-121.972;2022-09-30T17:45:02;9.02;;;3.10;;
50779;SDS011;36748;37.428;-121.972;2022-09-30T17:47:29;9.30;;;3.10;;
50779;SDS011;36748;37.428;-121.972;2022-09-30T17:49:55;8.93;;;2.92;;
50779;SDS011;36748;37.428;-121.972;2022-09-30T17:52:22;10.15;;;3.70;;
50779;SDS011;36748;37.428;-121.972;2022-09-30T17:54:50;9.15;;;3.05;;
50779;SDS011;36748;37.428;-121.972;2022-09-30T17:57:17;10.27;;;2.75;;
50779;SDS011;36748;37.428;-121.972;2022-09-30T17:59:44;12.18;;;2.92;;
50779;SDS011;36748;37.428;-121.972;2022-09-30T18:02:13;10.45;;;3.35;;
50779;SDS011;36748;37.428;-121.972;2022-09-30T18:04:41;9.70;;;3.03;;
50779;SDS011;36748;37.428;-121.972;2022-09-30T18:07:08;7.03;;;2.38;;
50779;SDS011;36748;37.428;-121.972;2022-09-30T18:09:35;9.40;;;2.80;;
50779;SDS011;36748;37.428;-121.972;2022-09-30T18:12:03;9.32;;;3.38;;
50779;SDS011;36748;37.428;-121.972;2022-09-30T18:14:31;10.57;;;3.42;;
50779;SDS011;36748;37.428;-121.972;2022-09-30T18:17:03;5.70;;;2.60;;
50779;SDS011;36748;37.428;-121.972;2022-09-30T18:19:30;10.00;;;2.67;;